sensor_id;sensor_type;location;lat;lon;timestamp;P1;durP1;ratioP1;P2;durP2;ratioP2
12218;SDS011;6172;42.646;23.344;2023-04-25T00:02:23;3.53;;;3.23;;
12218;SDS011;6172;42.646;23.344;2023-04-25T00:04:49;3.50;;;2.80;;
12218;SDS011;6172;42.646;23.344;2023-04-25T00:07:17;3.53;;;3.10;;
12218;SDS011;6172;42.646;23.344;2023-04-25T00:09:44;6.37;;;3.07;;
12218;SDS011;6172;42.646;23.344;2023-04-25T00:12:11;3.97;;;3.10;;
12218;SDS011;6172;42.646;23.344;2023-04-25T00:14:38;3.60;;;2.50;;
12218;SDS011;6172;42.646;23.344;2023-04-25T00:17:05;4.40;;;3.30;;
12218;SDS011;6172;42.646;23.344;2023-04-25T00:19:34;4.10;;;3.10;;
12218;SDS011;6172;42.646;23.344;2023-04-25T00:22:00;3.50;;;3.27;;
12218;SDS011;6172;42.646;23.344;2023-04-25T00:24:27;4.23;;;3.43;;
12218;SDS011;6172;42.646;23.344;2023-04-25T00:26:54;3.90;;;3.60;;
12218;SDS011;6172;42.646;23.344;2023-04-25T00:29:21;3.90;;;3.47;;
12218;SDS011;6172;42.646;23.344;2023-04-25T00:31:48;4.67;;;3.40;;
12218;SDS011;6172;42.646;23.344;2023-04-25T00:34:15;4.37;;;3.40;;
12218;SDS011;6172;42.646;23.344;2023-04-25T00:36:44;4.50;;;4.10;;
12218;SDS011;6172;42.646;23.344;2023-04-25T00:39:11;4.20;;;3.80;;
12218;SDS011;6172;42.646;23.344;2023-04-25T00:41:38;6.47;;;4.10;;
12218;SDS011;6172;42.646;23.344;2023-04-25T00:44:06;4.37;;;3.90;;
12218;SDS011;6172;42.646;23.344;2023-04-25T00:46:36;5.03;;;4.20;;
12218;SDS011;6172;42.646;23.344;2023-04-25T00:49:03;6.90;;;5.00;;
12218;SDS011;6172;42.646;23.344;2023-04-25T00:51:30;5.23;;;4.73;;
12218;SDS011;6172;42.646;23.344;2023-04-25T00:54:00;6.53;;;5.40;;
12218;SDS011;6172;42.646;23.344;2023-04-25T00:56:28;7.27;;;5.50;;
12218;SDS011;6172;42.646;23.344;2023-04-25T00:58:55;7.50;;;5.93;;
12218;SDS011;6172;42.646;23.344;2023-04-25T01:01:23;8.30;;;6.07;;
12218;SDS011;6172;42.646;23.344;2023-04-25T01:03:50;5.93;;;5.27;;
12218;SDS011;6172;42.646;23.344;2023-04-25T01:06:18;7.17;;;6.17;;
12218;SDS011;6172;42.646;23.344;2023-04-25T01:08:45;6.20;;;5.60;;
12218;SDS011;6172;42.646;23.344;2023-04-25T01:11:14;6.63;;;5.40;;
12218;SDS011;6172;42.646;23.344;2023-04-25T01:13:41;6.73;;;5.37;;
12218;SDS011;6172;42.646;23.344;2023-04-25T01:16:08;5.83;;;4.63;;
12218;SDS011;6172;42.646;23.344;2023-04-25T01:18:34;6.63;;;5.20;;
12218;SDS011;6172;42.646;23.344;2023-04-25T01:21:06;6.13;;;4.73;;
12218;SDS011;6172;42.646;23.344;2023-04-25T01:23:35;4.87;;;4.27;;
12218;SDS011;6172;42.646;23.344;2023-04-25T01:26:02;7.53;;;4.63;;
12218;SDS011;6172;42.646;23.344;2023-04-25T01:28:29;6.17;;;4.30;;
12218;SDS011;6172;42.646;23.344;2023-04-25T01:30:57;6.43;;;5.00;;
12218;SDS011;6172;42.646;23.344;2023-04-25T01:33:25;5.90;;;5.10;;
12218;SDS011;6172;42.646;23.344;2023-04-25T01:35:52;5.87;;;4.13;;
12218;SDS011;6172;42.646;23.344;2023-04-25T01:38:21;5.20;;;4.53;;
12218;SDS011;6172;42.646;23.344;2023-04-25T01:40:48;5.50;;;4.27;;
12218;SDS011;6172;42.646;23.344;2023-04-25T01:43:17;6.10;;;4.13;;
12218;SDS011;6172;42.646;23.344;2023-04-25T01:45:44;6.07;;;4.10;;
12218;SDS011;6172;42.646;23.344;2023-04-25T01:48:12;5.03;;;4.30;;
12218;SDS011;6172;42.646;23.344;2023-04-25T01:50:40;6.07;;;3.83;;
12218;SDS011;6172;42.646;23.344;2023-04-25T01:53:07;4.40;;;4.00;;
12218;SDS011;6172;42.646;23.344;2023-04-25T01:55:37;5.03;;;4.10;;
12218;SDS011;6172;42.646;23.344;2023-04-25T01:58:04;5.43;;;4.23;;
12218;SDS011;6172;42.646;23.344;2023-04-25T02:00:34;5.53;;;5.00;;
12218;SDS011;6172;42.646;23.344;2023-04-25T02:03:03;6.23;;;4.70;;
12218;SDS011;6172;42.646;23.344;2023-04-25T02:05:33;5.00;;;4.03;;
12218;SDS011;6172;42.646;23.344;2023-04-25T02:08:01;6.43;;;4.50;;
12218;SDS011;6172;42.646;23.344;2023-04-25T02:10:28;4.83;;;4.03;;
12218;SDS011;6172;42.646;23.344;2023-04-25T02:12:56;4.83;;;4.00;;
12218;SDS011;6172;42.646;23.344;2023-04-25T02:15:23;4.93;;;4.10;;
12218;SDS011;6172;42.646;23.344;2023-04-25T02:17:50;4.67;;;4.27;;
12218;SDS011;6172;42.646;23.344;2023-04-25T02:20:18;5.07;;;3.80;;
12218;SDS011;6172;42.646;23.344;2023-04-25T02:22:46;4.80;;;4.30;;
12218;SDS011;6172;42.646;23.344;2023-04-25T02:25:13;5.10;;;4.13;;
12218;SDS011;6172;42.646;23.344;2023-04-25T02:27:41;5.07;;;4.37;;
12218;SDS011;6172;42.646;23.344;2023-04-25T02:30:09;6.30;;;4.60;;
12218;SDS011;6172;42.646;23.344;2023-04-25T02:32:37;5.63;;;4.20;;
12218;SDS011;6172;42.646;23.344;2023-04-25T02:35:04;6.40;;;4.73;;
12218;SDS011;6172;42.646;23.344;2023-04-25T02:37:32;4.97;;;4.47;;
12218;SDS011;6172;42.646;23.344;2023-04-25T02:40:00;6.63;;;5.17;;
12218;SDS011;6172;42.646;23.344;2023-04-25T02:42:27;6.67;;;5.73;;
12218;SDS011;6172;42.646;23.344;2023-04-25T02:44:54;6.57;;;5.00;;
12218;SDS011;6172;42.646;23.344;2023-04-25T02:47:23;5.43;;;4.13;;
12218;SDS011;6172;42.646;23.344;2023-04-25T02:49:49;5.10;;;4.60;;
12218;SDS011;6172;42.646;23.344;2023-04-25T02:52:16;5.07;;;4.10;;
12218;SDS011;6172;42.646;23.344;2023-04-25T02:54:43;5.00;;;4.17;;
12218;SDS011;6172;42.646;23.344;2023-04-25T02:57:10;4.67;;;4.27;;
12218;SDS011;6172;42.646;23.344;2023-04-25T02:59:37;4.27;;;3.87;;
12218;SDS011;6172;42.646;23.344;2023-04-25T03:02:03;5.00;;;4.50;;
12218;SDS011;6172;42.646;23.344;2023-04-25T03:04:32;6.37;;;5.23;;
12218;SDS011;6172;42.646;23.344;2023-04-25T03:06:59;5.07;;;4.30;;
12218;SDS011;6172;42.646;23.344;2023-04-25T03:09:26;4.80;;;4.13;;
12218;SDS011;6172;42.646;23.344;2023-04-25T03:11:53;6.17;;;4.70;;
12218;SDS011;6172;42.646;23.344;2023-04-25T03:14:20;5.70;;;4.63;;
12218;SDS011;6172;42.646;23.344;2023-04-25T03:16:47;6.60;;;4.80;;
12218;SDS011;6172;42.646;23.344;2023-04-25T03:19:14;6.47;;;5.20;;
12218;SDS011;6172;42.646;23.344;2023-04-25T03:21:43;7.40;;;5.13;;
12218;SDS011;6172;42.646;23.344;2023-04-25T03:24:10;5.73;;;4.80;;
12218;SDS011;6172;42.646;23.344;2023-04-25T03:26:37;7.80;;;5.77;;
12218;SDS011;6172;42.646;23.344;2023-04-25T03:29:04;8.73;;;6.70;;
12218;SDS011;6172;42.646;23.344;2023-04-25T03:31:31;7.20;;;5.80;;
12218;SDS011;6172;42.646;23.344;2023-04-25T03:33:58;7.07;;;5.80;;
12218;SDS011;6172;42.646;23.344;2023-04-25T03:36:25;8.43;;;5.83;;
12218;SDS011;6172;42.646;23.344;2023-04-25T03:38:53;10.57;;;7.20;;
12218;SDS011;6172;42.646;23.344;2023-04-25T03:41:20;10.17;;;6.90;;
12218;SDS011;6172;42.646;23.344;2023-04-25T03:43:46;12.23;;;7.60;;
12218;SDS011;6172;42.646;23.344;2023-04-25T03:46:13;9.60;;;6.83;;
12218;SDS011;6172;42.646;23.344;2023-04-25T03:48:40;8.53;;;6.73;;
12218;SDS011;6172;42.646;23.344;2023-04-25T03:51:07;9.63;;;7.10;;
12218;SDS011;6172;42.646;23.344;2023-04-25T03:53:34;12.30;;;7.47;;
12218;SDS011;6172;42.646;23.344;2023-04-25T03:56:02;11.00;;;7.93;;
12218;SDS011;6172;42.646;23.344;2023-04-25T03:58:30;9.63;;;7.13;;
12218;SDS011;6172;42.646;23.344;2023-04-25T04:00:57;9.93;;;7.40;;
12218;SDS011;6172;42.646;23.344;2023-04-25T04:03:24;11.30;;;6.73;;
12218;SDS011;6172;42.646;23.344;2023-04-25T04:05:50;10.60;;;7.17;;
12218;SDS011;6172;42.646;23.344;2023-04-25T04:08:18;7.57;;;6.50;;
12218;SDS011;6172;42.646;23.344;2023-04-25T04:10:45;8.00;;;5.97;;
12218;SDS011;6172;42.646;23.344;2023-04-25T04:13:13;8.73;;;6.67;;
12218;SDS011;6172;42.646;23.344;2023-04-25T04:15:40;6.90;;;6.20;;
12218;SDS011;6172;42.646;23.344;2023-04-25T04:18:07;8.73;;;5.57;;
12218;SDS011;6172;42.646;23.344;2023-04-25T04:20:35;6.80;;;5.90;;
12218;SDS011;6172;42.646;23.344;2023-04-25T04:23:02;8.43;;;6.13;;
12218;SDS011;6172;42.646;23.344;2023-04-25T04:25:30;10.70;;;6.60;;
12218;SDS011;6172;42.646;23.344;2023-04-25T04:27:57;7.53;;;5.97;;
12218;SDS011;6172;42.646;23.344;2023-04-25T04:30:25;7.00;;;5.63;;
12218;SDS011;6172;42.646;23.344;2023-04-25T04:32:54;7.83;;;6.17;;
12218;SDS011;6172;42.646;23.344;2023-04-25T04:35:21;6.83;;;5.80;;
12218;SDS011;6172;42.646;23.344;2023-04-25T04:37:48;9.60;;;6.43;;
12218;SDS011;6172;42.646;23.344;2023-04-25T04:40:15;7.07;;;6.03;;
12218;SDS011;6172;42.646;23.344;2023-04-25T04:42:42;7.47;;;5.70;;
12218;SDS011;6172;42.646;23.344;2023-04-25T04:45:10;7.87;;;5.83;;
12218;SDS011;6172;42.646;23.344;2023-04-25T04:47:39;7.40;;;6.00;;
12218;SDS011;6172;42.646;23.344;2023-04-25T04:50:06;8.73;;;6.70;;
12218;SDS011;6172;42.646;23.344;2023-04-25T04:52:34;9.63;;;7.03;;
12218;SDS011;6172;42.646;23.344;2023-04-25T04:55:02;9.57;;;7.27;;
12218;SDS011;6172;42.646;23.344;2023-04-25T04:57:31;8.63;;;7.73;;
12218;SDS011;6172;42.646;23.344;2023-04-25T04:59:58;8.50;;;7.17;;
12218;SDS011;6172;42.646;23.344;2023-04-25T05:02:25;8.30;;;6.67;;
12218;SDS011;6172;42.646;23.344;2023-04-25T05:04:53;9.17;;;6.97;;
12218;SDS011;6172;42.646;23.344;2023-04-25T05:07:22;7.63;;;6.50;;
12218;SDS011;6172;42.646;23.344;2023-04-25T05:09:49;6.87;;;5.77;;
12218;SDS011;6172;42.646;23.344;2023-04-25T05:12:16;7.37;;;5.77;;
12218;SDS011;6172;42.646;23.344;2023-04-25T05:14:43;6.53;;;5.60;;
12218;SDS011;6172;42.646;23.344;2023-04-25T05:17:09;6.27;;;5.67;;
12218;SDS011;6172;42.646;23.344;2023-04-25T05:19:36;6.73;;;4.83;;
12218;SDS011;6172;42.646;23.344;2023-04-25T05:22:05;5.57;;;5.07;;
12218;SDS011;6172;42.646;23.344;2023-04-25T05:24:32;7.37;;;6.13;;
12218;SDS011;6172;42.646;23.344;2023-04-25T05:26:59;10.73;;;5.77;;
12218;SDS011;6172;42.646;23.344;2023-04-25T05:29:26;6.23;;;5.30;;
12218;SDS011;6172;42.646;23.344;2023-04-25T05:31:52;7.30;;;5.73;;
12218;SDS011;6172;42.646;23.344;2023-04-25T05:34:19;7.03;;;5.83;;
12218;SDS011;6172;42.646;23.344;2023-04-25T05:36:46;7.50;;;6.50;;
12218;SDS011;6172;42.646;23.344;2023-04-25T05:39:16;9.83;;;6.90;;
12218;SDS011;6172;42.646;23.344;2023-04-25T05:41:43;10.57;;;7.83;;
12218;SDS011;6172;42.646;23.344;2023-04-25T05:44:10;9.27;;;7.50;;
12218;SDS011;6172;42.646;23.344;2023-04-25T05:46:37;8.90;;;7.93;;
12218;SDS011;6172;42.646;23.344;2023-04-25T05:49:04;11.97;;;8.13;;
12218;SDS011;6172;42.646;23.344;2023-04-25T05:51:30;10.00;;;7.47;;
12218;SDS011;6172;42.646;23.344;2023-04-25T05:53:57;12.53;;;7.43;;
12218;SDS011;6172;42.646;23.344;2023-04-25T05:56:26;7.63;;;6.33;;
12218;SDS011;6172;42.646;23.344;2023-04-25T05:58:53;9.73;;;6.60;;
12218;SDS011;6172;42.646;23.344;2023-04-25T06:01:21;8.90;;;6.33;;
12218;SDS011;6172;42.646;23.344;2023-04-25T06:03:48;7.27;;;6.10;;
12218;SDS011;6172;42.646;23.344;2023-04-25T06:06:16;8.67;;;5.30;;
12218;SDS011;6172;42.646;23.344;2023-04-25T06:08:43;6.90;;;5.10;;
12218;SDS011;6172;42.646;23.344;2023-04-25T06:11:10;6.50;;;4.50;;
12218;SDS011;6172;42.646;23.344;2023-04-25T06:13:38;6.73;;;5.20;;
12218;SDS011;6172;42.646;23.344;2023-04-25T06:16:05;6.97;;;5.63;;
12218;SDS011;6172;42.646;23.344;2023-04-25T06:18:32;10.80;;;6.73;;
12218;SDS011;6172;42.646;23.344;2023-04-25T06:20:59;8.30;;;6.90;;
12218;SDS011;6172;42.646;23.344;2023-04-25T06:23:26;7.17;;;5.93;;
12218;SDS011;6172;42.646;23.344;2023-04-25T06:25:53;8.43;;;6.00;;
12218;SDS011;6172;42.646;23.344;2023-04-25T06:28:20;6.53;;;5.43;;
12218;SDS011;6172;42.646;23.344;2023-04-25T06:30:49;7.00;;;5.60;;
12218;SDS011;6172;42.646;23.344;2023-04-25T06:33:16;8.43;;;5.60;;
12218;SDS011;6172;42.646;23.344;2023-04-25T06:35:43;6.90;;;5.60;;
12218;SDS011;6172;42.646;23.344;2023-04-25T06:38:10;6.30;;;5.53;;
12218;SDS011;6172;42.646;23.344;2023-04-25T06:40:37;9.90;;;5.47;;
12218;SDS011;6172;42.646;23.344;2023-04-25T06:43:04;7.73;;;4.97;;
12218;SDS011;6172;42.646;23.344;2023-04-25T06:45:31;6.57;;;4.67;;
12218;SDS011;6172;42.646;23.344;2023-04-25T06:47:59;5.80;;;4.80;;
12218;SDS011;6172;42.646;23.344;2023-04-25T06:50:26;6.63;;;4.67;;
12218;SDS011;6172;42.646;23.344;2023-04-25T06:52:52;6.23;;;3.47;;
12218;SDS011;6172;42.646;23.344;2023-04-25T06:55:19;3.80;;;3.37;;
12218;SDS011;6172;42.646;23.344;2023-04-25T06:57:47;4.90;;;3.60;;
12218;SDS011;6172;42.646;23.344;2023-04-25T07:00:14;5.33;;;4.27;;
12218;SDS011;6172;42.646;23.344;2023-04-25T07:02:42;8.40;;;4.40;;
12218;SDS011;6172;42.646;23.344;2023-04-25T07:05:10;9.97;;;4.40;;
12218;SDS011;6172;42.646;23.344;2023-04-25T07:07:37;7.50;;;4.00;;
12218;SDS011;6172;42.646;23.344;2023-04-25T07:10:04;7.20;;;3.67;;
12218;SDS011;6172;42.646;23.344;2023-04-25T07:12:32;5.23;;;3.47;;
12218;SDS011;6172;42.646;23.344;2023-04-25T07:14:59;4.80;;;2.97;;
12218;SDS011;6172;42.646;23.344;2023-04-25T07:17:30;4.57;;;3.17;;
12218;SDS011;6172;42.646;23.344;2023-04-25T07:19:58;6.93;;;3.70;;
12218;SDS011;6172;42.646;23.344;2023-04-25T07:22:27;5.90;;;3.57;;
12218;SDS011;6172;42.646;23.344;2023-04-25T07:24:54;10.50;;;4.10;;
12218;SDS011;6172;42.646;23.344;2023-04-25T07:27:21;7.20;;;3.87;;
12218;SDS011;6172;42.646;23.344;2023-04-25T07:29:48;5.63;;;3.77;;
12218;SDS011;6172;42.646;23.344;2023-04-25T07:32:15;4.80;;;4.20;;
12218;SDS011;6172;42.646;23.344;2023-04-25T07:34:42;6.30;;;3.97;;
12218;SDS011;6172;42.646;23.344;2023-04-25T07:37:09;7.40;;;4.37;;
12218;SDS011;6172;42.646;23.344;2023-04-25T07:39:37;5.87;;;4.00;;
12218;SDS011;6172;42.646;23.344;2023-04-25T07:42:04;6.90;;;5.33;;
12218;SDS011;6172;42.646;23.344;2023-04-25T07:44:33;5.30;;;4.40;;
12218;SDS011;6172;42.646;23.344;2023-04-25T07:47:03;5.93;;;4.43;;
12218;SDS011;6172;42.646;23.344;2023-04-25T07:49:32;7.77;;;4.73;;
12218;SDS011;6172;42.646;23.344;2023-04-25T07:51:59;10.50;;;4.63;;
12218;SDS011;6172;42.646;23.344;2023-04-25T07:54:25;9.30;;;4.50;;
12218;SDS011;6172;42.646;23.344;2023-04-25T07:56:54;7.73;;;4.87;;
12218;SDS011;6172;42.646;23.344;2023-04-25T07:59:21;10.37;;;5.17;;
12218;SDS011;6172;42.646;23.344;2023-04-25T08:01:48;6.13;;;4.43;;
12218;SDS011;6172;42.646;23.344;2023-04-25T08:04:15;5.97;;;4.40;;
12218;SDS011;6172;42.646;23.344;2023-04-25T08:06:42;5.57;;;4.73;;
12218;SDS011;6172;42.646;23.344;2023-04-25T08:09:10;5.77;;;4.67;;
12218;SDS011;6172;42.646;23.344;2023-04-25T08:11:37;8.27;;;4.53;;
12218;SDS011;6172;42.646;23.344;2023-04-25T08:14:06;6.13;;;4.07;;
12218;SDS011;6172;42.646;23.344;2023-04-25T08:16:33;5.43;;;4.53;;
12218;SDS011;6172;42.646;23.344;2023-04-25T08:19:00;7.27;;;4.50;;
12218;SDS011;6172;42.646;23.344;2023-04-25T08:21:27;8.67;;;4.40;;
12218;SDS011;6172;42.646;23.344;2023-04-25T08:23:54;10.77;;;3.47;;
12218;SDS011;6172;42.646;23.344;2023-04-25T08:26:22;5.90;;;3.40;;
12218;SDS011;6172;42.646;23.344;2023-04-25T08:28:49;6.03;;;3.47;;
12218;SDS011;6172;42.646;23.344;2023-04-25T08:31:18;7.00;;;3.47;;
12218;SDS011;6172;42.646;23.344;2023-04-25T08:33:46;2.50;;;2.30;;
12218;SDS011;6172;42.646;23.344;2023-04-25T08:36:14;3.90;;;2.63;;
12218;SDS011;6172;42.646;23.344;2023-04-25T08:38:42;2.80;;;2.50;;
12218;SDS011;6172;42.646;23.344;2023-04-25T08:41:09;4.93;;;2.60;;
12218;SDS011;6172;42.646;23.344;2023-04-25T08:43:39;6.23;;;3.60;;
12218;SDS011;6172;42.646;23.344;2023-04-25T08:46:10;8.80;;;2.60;;
12218;SDS011;6172;42.646;23.344;2023-04-25T08:48:40;3.13;;;1.80;;
12218;SDS011;6172;42.646;23.344;2023-04-25T08:51:09;3.70;;;2.70;;
12218;SDS011;6172;42.646;23.344;2023-04-25T08:53:41;5.40;;;2.70;;
12218;SDS011;6172;42.646;23.344;2023-04-25T08:56:11;4.57;;;2.60;;
12218;SDS011;6172;42.646;23.344;2023-04-25T08:58:42;4.20;;;2.33;;
12218;SDS011;6172;42.646;23.344;2023-04-25T09:01:11;3.70;;;2.88;;
12218;SDS011;6172;42.646;23.344;2023-04-25T09:03:38;2.78;;;2.42;;
12218;SDS011;6172;42.646;23.344;2023-04-25T09:06:06;8.82;;;4.60;;
12218;SDS011;6172;42.646;23.344;2023-04-25T09:08:36;5.82;;;4.47;;
12218;SDS011;6172;42.646;23.344;2023-04-25T09:11:05;5.40;;;4.38;;
12218;SDS011;6172;42.646;23.344;2023-04-25T09:13:33;6.32;;;4.47;;
12218;SDS011;6172;42.646;23.344;2023-04-25T09:16:00;5.38;;;4.22;;
12218;SDS011;6172;42.646;23.344;2023-04-25T09:18:28;6.90;;;5.05;;
12218;SDS011;6172;42.646;23.344;2023-04-25T09:20:58;9.07;;;5.45;;
12218;SDS011;6172;42.646;23.344;2023-04-25T09:23:38;9.17;;;5.13;;
12218;SDS011;6172;42.646;23.344;2023-04-25T09:26:06;6.33;;;4.90;;
12218;SDS011;6172;42.646;23.344;2023-04-25T09:28:34;6.80;;;5.50;;
12218;SDS011;6172;42.646;23.344;2023-04-25T09:31:03;6.97;;;5.37;;
12218;SDS011;6172;42.646;23.344;2023-04-25T09:33:31;8.40;;;5.03;;
12218;SDS011;6172;42.646;23.344;2023-04-25T09:36:12;4.97;;;4.13;;
12218;SDS011;6172;42.646;23.344;2023-04-25T09:38:40;4.77;;;4.13;;
12218;SDS011;6172;42.646;23.344;2023-04-25T09:41:08;4.60;;;3.77;;
12218;SDS011;6172;42.646;23.344;2023-04-25T09:43:35;8.80;;;5.00;;
12218;SDS011;6172;42.646;23.344;2023-04-25T09:46:07;8.80;;;4.87;;
12218;SDS011;6172;42.646;23.344;2023-04-25T09:48:36;8.37;;;4.67;;
12218;SDS011;6172;42.646;23.344;2023-04-25T09:51:06;7.53;;;4.87;;
12218;SDS011;6172;42.646;23.344;2023-04-25T09:53:35;5.37;;;3.90;;
12218;SDS011;6172;42.646;23.344;2023-04-25T09:56:03;7.53;;;4.17;;
12218;SDS011;6172;42.646;23.344;2023-04-25T09:58:35;5.77;;;3.23;;
12218;SDS011;6172;42.646;23.344;2023-04-25T10:01:07;6.27;;;3.03;;
12218;SDS011;6172;42.646;23.344;2023-04-25T10:03:35;6.67;;;3.30;;
12218;SDS011;6172;42.646;23.344;2023-04-25T10:06:06;5.97;;;3.20;;
12218;SDS011;6172;42.646;23.344;2023-04-25T10:08:38;6.67;;;3.00;;
12218;SDS011;6172;42.646;23.344;2023-04-25T10:11:06;4.87;;;2.80;;
12218;SDS011;6172;42.646;23.344;2023-04-25T10:13:34;6.13;;;3.00;;
12218;SDS011;6172;42.646;23.344;2023-04-25T10:16:02;4.00;;;2.87;;
12218;SDS011;6172;42.646;23.344;2023-04-25T10:18:31;7.27;;;3.10;;
12218;SDS011;6172;42.646;23.344;2023-04-25T10:20:59;5.37;;;1.93;;
12218;SDS011;6172;42.646;23.344;2023-04-25T10:23:30;1.27;;;0.40;;
12218;SDS011;6172;42.646;23.344;2023-04-25T10:25:59;0.30;;;0.30;;
12218;SDS011;6172;42.646;23.344;2023-04-25T10:28:27;0.60;;;0.40;;
12218;SDS011;6172;42.646;23.344;2023-04-25T10:30:58;1.50;;;0.40;;
12218;SDS011;6172;42.646;23.344;2023-04-25T10:36:10;1.87;;;0.40;;
12218;SDS011;6172;42.646;23.344;2023-04-25T10:38:40;4.10;;;0.43;;
12218;SDS011;6172;42.646;23.344;2023-04-25T10:41:09;1.40;;;0.37;;
12218;SDS011;6172;42.646;23.344;2023-04-25T10:43:37;0.47;;;0.30;;
12218;SDS011;6172;42.646;23.344;2023-04-25T10:46:18;4.50;;;0.80;;
12218;SDS011;6172;42.646;23.344;2023-04-25T10:48:48;1.23;;;0.20;;
12218;SDS011;6172;42.646;23.344;2023-04-25T10:51:21;2.30;;;0.60;;
12218;SDS011;6172;42.646;23.344;2023-04-25T10:53:59;0.73;;;0.40;;
12218;SDS011;6172;42.646;23.344;2023-04-25T10:56:27;0.40;;;0.32;;
12218;SDS011;6172;42.646;23.344;2023-04-25T10:59:05;2.33;;;0.47;;
12218;SDS011;6172;42.646;23.344;2023-04-25T11:01:37;0.67;;;0.30;;
12218;SDS011;6172;42.646;23.344;2023-04-25T11:04:05;1.40;;;0.60;;
12218;SDS011;6172;42.646;23.344;2023-04-25T11:06:47;4.00;;;0.67;;
12218;SDS011;6172;42.646;23.344;2023-04-25T11:09:33;3.93;;;0.60;;
12218;SDS011;6172;42.646;23.344;2023-04-25T11:12:03;3.47;;;0.60;;
12218;SDS011;6172;42.646;23.344;2023-04-25T11:14:31;0.50;;;0.30;;
12218;SDS011;6172;42.646;23.344;2023-04-25T11:16:58;2.07;;;0.30;;
12218;SDS011;6172;42.646;23.344;2023-04-25T11:19:26;0.90;;;0.33;;
12218;SDS011;6172;42.646;23.344;2023-04-25T11:21:54;1.33;;;0.20;;
12218;SDS011;6172;42.646;23.344;2023-04-25T11:24:25;2.53;;;0.30;;
12218;SDS011;6172;42.646;23.344;2023-04-25T11:26:54;1.80;;;0.40;;
12218;SDS011;6172;42.646;23.344;2023-04-25T11:29:21;3.67;;;0.40;;
12218;SDS011;6172;42.646;23.344;2023-04-25T11:31:49;1.10;;;0.30;;
12218;SDS011;6172;42.646;23.344;2023-04-25T11:34:16;2.80;;;0.30;;
12218;SDS011;6172;42.646;23.344;2023-04-25T11:36:44;1.47;;;0.33;;
12218;SDS011;6172;42.646;23.344;2023-04-25T11:39:11;0.20;;;0.13;;
12218;SDS011;6172;42.646;23.344;2023-04-25T11:41:41;1.13;;;0.20;;
12218;SDS011;6172;42.646;23.344;2023-04-25T11:44:11;4.83;;;0.80;;
12218;SDS011;6172;42.646;23.344;2023-04-25T11:46:38;2.37;;;0.93;;
12218;SDS011;6172;42.646;23.344;2023-04-25T11:49:05;2.60;;;1.03;;
12218;SDS011;6172;42.646;23.344;2023-04-25T11:51:37;4.63;;;0.40;;
12218;SDS011;6172;42.646;23.344;2023-04-25T11:54:05;5.43;;;1.00;;
12218;SDS011;6172;42.646;23.344;2023-04-25T11:56:32;3.07;;;0.90;;
12218;SDS011;6172;42.646;23.344;2023-04-25T11:58:59;0.80;;;0.47;;
12218;SDS011;6172;42.646;23.344;2023-04-25T12:01:30;6.50;;;0.57;;
12218;SDS011;6172;42.646;23.344;2023-04-25T12:03:57;2.47;;;0.50;;
12218;SDS011;6172;42.646;23.344;2023-04-25T12:06:27;1.23;;;0.30;;
12218;SDS011;6172;42.646;23.344;2023-04-25T12:09:01;1.27;;;0.20;;
12218;SDS011;6172;42.646;23.344;2023-04-25T12:11:29;3.93;;;0.40;;
12218;SDS011;6172;42.646;23.344;2023-04-25T12:14:01;4.30;;;0.30;;
12218;SDS011;6172;42.646;23.344;2023-04-25T12:16:42;1.23;;;0.40;;
12218;SDS011;6172;42.646;23.344;2023-04-25T12:19:13;1.57;;;0.40;;
12218;SDS011;6172;42.646;23.344;2023-04-25T12:21:41;2.07;;;0.40;;
12218;SDS011;6172;42.646;23.344;2023-04-25T12:24:10;1.43;;;0.30;;
12218;SDS011;6172;42.646;23.344;2023-04-25T12:26:49;1.60;;;0.40;;
12218;SDS011;6172;42.646;23.344;2023-04-25T12:29:20;1.00;;;0.37;;
12218;SDS011;6172;42.646;23.344;2023-04-25T12:31:51;1.30;;;0.70;;
12218;SDS011;6172;42.646;23.344;2023-04-25T12:34:19;3.33;;;0.40;;
12218;SDS011;6172;42.646;23.344;2023-04-25T12:36:47;0.57;;;0.40;;
12218;SDS011;6172;42.646;23.344;2023-04-25T12:39:19;1.17;;;0.30;;
12218;SDS011;6172;42.646;23.344;2023-04-25T12:41:47;1.10;;;0.60;;
12218;SDS011;6172;42.646;23.344;2023-04-25T12:44:14;2.37;;;0.50;;
12218;SDS011;6172;42.646;23.344;2023-04-25T12:46:42;1.67;;;0.43;;
12218;SDS011;6172;42.646;23.344;2023-04-25T12:49:10;1.10;;;0.30;;
12218;SDS011;6172;42.646;23.344;2023-04-25T12:51:37;1.17;;;0.40;;
12218;SDS011;6172;42.646;23.344;2023-04-25T12:54:05;1.03;;;0.37;;
12218;SDS011;6172;42.646;23.344;2023-04-25T12:56:32;1.90;;;0.30;;
12218;SDS011;6172;42.646;23.344;2023-04-25T12:58:59;1.13;;;0.60;;
12218;SDS011;6172;42.646;23.344;2023-04-25T13:01:28;1.03;;;0.30;;
12218;SDS011;6172;42.646;23.344;2023-04-25T13:03:55;1.63;;;0.30;;
12218;SDS011;6172;42.646;23.344;2023-04-25T13:06:24;2.03;;;0.60;;
12218;SDS011;6172;42.646;23.344;2023-04-25T13:08:51;4.67;;;1.10;;
12218;SDS011;6172;42.646;23.344;2023-04-25T13:11:18;1.10;;;0.50;;
12218;SDS011;6172;42.646;23.344;2023-04-25T13:13:45;4.30;;;0.50;;
12218;SDS011;6172;42.646;23.344;2023-04-25T13:16:12;5.40;;;0.60;;
12218;SDS011;6172;42.646;23.344;2023-04-25T13:18:40;1.63;;;0.60;;
12218;SDS011;6172;42.646;23.344;2023-04-25T13:21:07;2.00;;;0.73;;
12218;SDS011;6172;42.646;23.344;2023-04-25T13:23:37;2.10;;;1.10;;
12218;SDS011;6172;42.646;23.344;2023-04-25T13:26:04;2.77;;;1.47;;
12218;SDS011;6172;42.646;23.344;2023-04-25T13:28:32;2.67;;;1.30;;
12218;SDS011;6172;42.646;23.344;2023-04-25T13:30:59;3.60;;;1.30;;
12218;SDS011;6172;42.646;23.344;2023-04-25T13:33:26;1.50;;;1.00;;
12218;SDS011;6172;42.646;23.344;2023-04-25T13:35:54;2.00;;;0.73;;
12218;SDS011;6172;42.646;23.344;2023-04-25T13:38:22;1.00;;;0.53;;
12218;SDS011;6172;42.646;23.344;2023-04-25T13:40:51;2.83;;;0.60;;
12218;SDS011;6172;42.646;23.344;2023-04-25T13:43:21;1.37;;;0.60;;
12218;SDS011;6172;42.646;23.344;2023-04-25T13:45:50;1.33;;;0.50;;
12218;SDS011;6172;42.646;23.344;2023-04-25T13:48:18;4.17;;;0.70;;
12218;SDS011;6172;42.646;23.344;2023-04-25T13:50:46;2.37;;;0.53;;
12218;SDS011;6172;42.646;23.344;2023-04-25T13:53:13;1.23;;;0.40;;
12218;SDS011;6172;42.646;23.344;2023-04-25T13:55:40;1.57;;;0.53;;
12218;SDS011;6172;42.646;23.344;2023-04-25T13:58:09;0.93;;;0.40;;
12218;SDS011;6172;42.646;23.344;2023-04-25T14:00:36;1.67;;;0.80;;
12218;SDS011;6172;42.646;23.344;2023-04-25T14:03:07;0.53;;;0.40;;
12218;SDS011;6172;42.646;23.344;2023-04-25T14:05:34;0.77;;;0.40;;
12218;SDS011;6172;42.646;23.344;2023-04-25T14:08:05;0.53;;;0.53;;
12218;SDS011;6172;42.646;23.344;2023-04-25T14:10:33;0.93;;;0.60;;
12218;SDS011;6172;42.646;23.344;2023-04-25T14:13:00;0.53;;;0.40;;
12218;SDS011;6172;42.646;23.344;2023-04-25T14:15:30;0.40;;;0.30;;
12218;SDS011;6172;42.646;23.344;2023-04-25T14:17:57;2.10;;;0.30;;
12218;SDS011;6172;42.646;23.344;2023-04-25T14:20:24;0.53;;;0.37;;
12218;SDS011;6172;42.646;23.344;2023-04-25T14:22:51;1.00;;;0.30;;
12218;SDS011;6172;42.646;23.344;2023-04-25T14:25:19;3.10;;;0.70;;
12218;SDS011;6172;42.646;23.344;2023-04-25T14:27:46;1.80;;;0.73;;
12218;SDS011;6172;42.646;23.344;2023-04-25T14:30:15;0.40;;;0.40;;
12218;SDS011;6172;42.646;23.344;2023-04-25T14:32:45;2.03;;;0.30;;
12218;SDS011;6172;42.646;23.344;2023-04-25T14:35:12;1.23;;;0.33;;
12218;SDS011;6172;42.646;23.344;2023-04-25T14:37:40;0.37;;;0.33;;
12218;SDS011;6172;42.646;23.344;2023-04-25T14:40:07;0.40;;;0.30;;
12218;SDS011;6172;42.646;23.344;2023-04-25T14:42:35;1.17;;;0.47;;
12218;SDS011;6172;42.646;23.344;2023-04-25T14:45:02;1.53;;;0.70;;
12218;SDS011;6172;42.646;23.344;2023-04-25T14:47:30;0.73;;;0.40;;
12218;SDS011;6172;42.646;23.344;2023-04-25T14:49:58;0.90;;;0.30;;
12218;SDS011;6172;42.646;23.344;2023-04-25T14:52:26;0.50;;;0.50;;
12218;SDS011;6172;42.646;23.344;2023-04-25T14:54:53;1.47;;;0.57;;
12218;SDS011;6172;42.646;23.344;2023-04-25T14:57:20;0.43;;;0.30;;